createdAt,value
2024-05-09T00:01:27.558Z,102016.20
2024-05-09T00:03:00.262Z,102016.20
2024-05-09T00:04:32.406Z,102021.00
2024-05-09T00:06:04.814Z,102021.60
2024-05-09T00:07:36.714Z,102019.60
2024-05-09T00:09:08.498Z,102020.40
2024-05-09T00:10:41.190Z,102017.20
2024-05-09T00:12:13.988Z,102017.80
2024-05-09T00:13:47.464Z,102012.80
2024-05-09T00:15:20.660Z,102012.80
2024-05-09T00:16:52.851Z,102014.40
2024-05-09T00:18:24.914Z,102010.60
2024-05-09T00:19:59.391Z,102016.00
2024-05-09T00:21:32.539Z,102015.00
2024-05-09T00:23:06.424Z,102019.40
2024-05-09T00:24:40.982Z,102016.80
2024-05-09T00:26:19.491Z,102013.00
2024-05-09T00:27:51.479Z,102016.40
2024-05-09T00:29:23.710Z,102015.60
2024-05-09T00:30:55.671Z,102014.40
2024-05-09T00:32:27.758Z,102014.60
2024-05-09T00:33:59.860Z,102015.40
2024-05-09T00:35:32.355Z,102012.60
2024-05-09T00:37:04.440Z,102011.80
2024-05-09T00:38:36.389Z,102014.80
2024-05-09T00:40:15.359Z,102015.00
2024-05-09T00:41:54.945Z,102012.60
2024-05-09T00:43:26.825Z,102011.80
2024-05-09T00:44:58.841Z,102017.60
2024-05-09T00:46:30.656Z,102014.80
2024-05-09T00:48:08.839Z,102011.40
2024-05-09T00:49:42.394Z,102013.40
2024-05-09T00:51:15.032Z,102014.60
2024-05-09T00:52:48.800Z,102014.60
2024-05-09T00:54:21.846Z,102014.20
2024-05-09T00:55:56.539Z,102011.60
2024-05-09T00:57:29.130Z,102009.60
2024-05-09T00:59:01.824Z,102012.40
2024-05-09T01:00:39.063Z,102012.00
2024-05-09T01:02:13.384Z,102008.00
2024-05-09T01:03:47.959Z,102009.20
2024-05-09T01:05:21.590Z,102008.60
2024-05-09T01:06:53.463Z,102006.00
2024-05-09T01:08:25.872Z,102010.80
2024-05-09T01:09:57.703Z,102008.60
2024-05-09T01:12:07.618Z,102009.00
2024-05-09T01:13:39.519Z,102010.20
2024-05-09T01:15:11.387Z,102015.40
2024-05-09T01:16:43.568Z,102009.40
2024-05-09T01:18:16.291Z,102010.00
2024-05-09T01:19:48.224Z,102010.40
2024-05-09T01:21:20.282Z,102007.00
2024-05-09T01:22:54.098Z,102002.40
2024-05-09T01:24:27.466Z,102004.20
2024-05-09T01:25:59.860Z,102007.20
2024-05-09T01:27:33.438Z,102006.00
2024-05-09T01:29:05.349Z,102004.20
2024-05-09T01:30:38.228Z,102003.60
2024-05-09T01:32:10.527Z,102005.60
2024-05-09T01:33:43.293Z,102007.60
2024-05-09T01:35:15.116Z,102006.60
2024-05-09T01:36:47.013Z,102005.00
2024-05-09T01:38:19.702Z,102005.20
2024-05-09T01:39:51.625Z,102009.20
2024-05-09T01:41:23.673Z,102009.20
2024-05-09T01:42:55.641Z,102002.60
2024-05-09T01:44:27.538Z,102001.00
2024-05-09T01:46:01.686Z,102000.20
2024-05-09T01:47:33.564Z,102000.60
2024-05-09T01:49:05.816Z,102000.40
2024-05-09T01:50:41.318Z,102001.80
2024-05-09T01:52:14.887Z,102002.80
2024-05-09T01:53:47.554Z,102000.00
2024-05-09T01:55:19.500Z,102002.60
2024-05-09T01:56:56.432Z,102001.00
2024-05-09T01:58:28.890Z,102002.60
2024-05-09T02:00:00.946Z,101998.00
2024-05-09T02:01:55.465Z,101998.00
2024-05-09T02:03:25.242Z,101995.80
2024-05-09T02:04:57.451Z,101996.80
2024-05-09T02:06:29.360Z,101991.60
2024-05-09T02:08:01.393Z,101994.80
2024-05-09T02:09:33.126Z,101995.40
2024-05-09T02:11:08.163Z,101993.60
2024-05-09T02:12:40.705Z,101990.60
2024-05-09T02:14:12.654Z,101991.00
2024-05-09T02:15:44.604Z,101990.00
2024-05-09T02:17:16.716Z,101987.80
2024-05-09T02:18:48.717Z,101991.40
2024-05-09T02:20:30.530Z,101991.00
2024-05-09T02:22:07.600Z,101989.60
2024-05-09T02:23:39.489Z,101984.20
2024-05-09T02:25:11.319Z,101991.80
2024-05-09T02:26:44.693Z,101991.60
2024-05-09T02:28:16.685Z,101993.80
2024-05-09T02:29:48.480Z,101993.40
2024-05-09T02:31:21.472Z,101992.60
2024-05-09T02:32:53.387Z,101993.00
2024-05-09T02:34:25.428Z,101993.40
2024-05-09T02:35:57.332Z,101988.80
2024-05-09T02:37:29.039Z,101995.00
2024-05-09T02:39:00.936Z,101990.60
2024-05-09T02:40:36.976Z,101993.20
2024-05-09T02:42:10.728Z,101989.00
2024-05-09T02:43:42.494Z,101991.40
2024-05-09T02:45:16.825Z,101998.80
2024-05-09T02:46:49.847Z,101992.80
2024-05-09T02:48:21.766Z,101996.60
2024-05-09T02:49:53.701Z,101995.20
2024-05-09T02:51:25.459Z,101993.80
2024-05-09T02:52:57.259Z,101989.80
2024-05-09T02:54:29.131Z,101993.40
2024-05-09T02:56:00.989Z,101990.60
2024-05-09T02:57:33.708Z,101993.60
2024-05-09T02:59:05.434Z,101991.40
2024-05-09T03:00:41.228Z,101991.60
2024-05-09T03:02:15.745Z,101990.60
2024-05-09T03:03:48.441Z,101991.20
2024-05-09T03:05:23.062Z,101990.20
2024-05-09T03:06:54.922Z,101989.80
2024-05-09T03:08:27.952Z,101988.20
2024-05-09T03:10:00.164Z,101991.40
2024-05-09T03:11:32.624Z,101988.20
2024-05-09T03:13:13.542Z,101986.40
2024-05-09T03:14:50.536Z,101987.40
2024-05-09T03:16:22.388Z,101986.00
2024-05-09T03:17:54.163Z,101989.80
2024-05-09T03:19:28.564Z,101988.60
2024-05-09T03:21:00.753Z,101989.20
2024-05-09T03:22:32.859Z,101985.00
2024-05-09T03:24:08.235Z,101976.20
2024-05-09T03:25:40.212Z,101980.20
2024-05-09T03:27:12.165Z,101981.80
2024-05-09T03:28:44.756Z,101979.40
2024-05-09T03:30:28.888Z,101981.00
2024-05-09T03:32:07.555Z,101980.00
2024-05-09T03:33:39.520Z,101982.60
2024-05-09T03:35:11.665Z,101983.60
2024-05-09T03:36:43.372Z,101978.40
2024-05-09T03:38:15.374Z,101980.80
2024-05-09T03:39:47.476Z,101977.40
2024-05-09T03:41:20.839Z,101982.40
2024-05-09T03:42:52.656Z,101984.80
2024-05-09T03:44:24.504Z,101984.80
2024-05-09T03:45:57.896Z,101980.40
2024-05-09T03:47:32.498Z,101976.80
2024-05-09T03:49:07.001Z,101979.40
2024-05-09T03:50:39.211Z,101977.40
2024-05-09T03:52:11.439Z,101983.40
2024-05-09T03:53:43.318Z,101983.20
2024-05-09T03:55:15.527Z,101982.40
2024-05-09T03:56:47.505Z,101982.20
2024-05-09T03:58:19.265Z,101980.60
2024-05-09T03:59:51.071Z,101979.40
2024-05-09T04:01:25.377Z,101980.20
2024-05-09T04:02:59.981Z,101980.40
2024-05-09T04:04:32.960Z,101981.00
2024-05-09T04:06:06.119Z,101981.20
2024-05-09T04:07:38.160Z,101983.20
2024-05-09T04:09:12.409Z,101980.20
2024-05-09T04:10:44.284Z,101980.80
2024-05-09T04:12:16.694Z,101982.20
2024-05-09T04:13:48.692Z,101980.00
2024-05-09T04:15:21.203Z,101982.60
2024-05-09T04:16:53.131Z,101984.80
2024-05-09T04:18:25.188Z,101988.60
2024-05-09T04:19:58.528Z,101983.80
2024-05-09T04:21:30.454Z,101984.00
2024-05-09T04:23:02.248Z,101980.60
2024-05-09T04:24:34.131Z,101980.20
2024-05-09T04:26:08.566Z,101979.60
2024-05-09T04:27:40.377Z,101983.00
2024-05-09T04:29:13.797Z,101988.80
2024-05-09T04:30:48.353Z,101985.80
2024-05-09T04:32:20.117Z,101985.80
2024-05-09T04:33:52.108Z,101986.20
2024-05-09T04:35:24.170Z,101985.00
2024-05-09T04:36:57.473Z,101988.80
2024-05-09T04:38:30.076Z,101986.40
2024-05-09T04:40:02.277Z,101982.40
2024-05-09T04:41:34.184Z,101982.20
2024-05-09T04:43:13.177Z,101983.40
2024-05-09T04:44:48.381Z,101979.80
2024-05-09T04:46:22.645Z,101976.60
2024-05-09T04:47:55.082Z,101976.80
2024-05-09T04:49:27.216Z,101976.40
2024-05-09T04:51:02.237Z,101974.80
2024-05-09T04:52:34.248Z,101975.80
2024-05-09T04:54:08.377Z,101976.20
2024-05-09T04:55:43.136Z,101976.80
2024-05-09T04:57:17.617Z,101974.80
2024-05-09T04:58:52.029Z,101980.40
2024-05-09T05:00:32.432Z,101980.80
2024-05-09T05:02:09.263Z,101982.80
2024-05-09T05:03:42.353Z,101984.00
2024-05-09T05:05:14.782Z,101988.20
2024-05-09T05:06:46.886Z,101986.60
2024-05-09T05:08:19.523Z,101987.00
2024-05-09T05:09:51.666Z,101987.80
2024-05-09T05:11:23.572Z,101988.40
2024-05-09T05:13:14.238Z,101992.40
2024-05-09T05:14:46.830Z,101985.80
2024-05-09T05:16:18.656Z,101990.40
2024-05-09T05:17:50.651Z,101992.20
2024-05-09T05:19:22.641Z,101993.00
2024-05-09T05:20:59.563Z,101993.80
2024-05-09T05:22:33.817Z,101991.20
2024-05-09T05:24:06.184Z,101990.60
2024-05-09T05:25:38.380Z,101994.00
2024-05-09T05:27:10.387Z,101991.40
2024-05-09T05:28:42.286Z,101988.60
2024-05-09T05:30:21.189Z,101991.00
2024-05-09T05:31:57.432Z,101993.80
2024-05-09T05:33:31.640Z,101992.60
2024-05-09T05:35:05.435Z,101995.00
2024-05-09T05:36:37.400Z,101999.80
2024-05-09T05:38:10.611Z,101996.60
2024-05-09T05:39:42.524Z,101999.80
2024-05-09T05:41:16.961Z,101997.20
2024-05-09T05:42:48.803Z,101996.20
2024-05-09T05:44:20.720Z,101996.00
2024-05-09T05:45:53.864Z,101997.40
2024-05-09T05:47:26.070Z,101992.00
2024-05-09T05:48:58.368Z,101992.00
2024-05-09T05:50:35.838Z,101992.40
2024-05-09T05:52:12.264Z,101990.00
2024-05-09T05:53:45.014Z,101990.00
2024-05-09T05:55:17.031Z,101992.60
2024-05-09T05:56:48.731Z,101995.20
2024-05-09T05:58:21.503Z,101991.40
2024-05-09T05:59:53.704Z,101994.20
2024-05-09T06:01:25.966Z,101996.40
2024-05-09T06:02:57.863Z,101992.20
2024-05-09T06:04:31.388Z,101993.40
2024-05-09T06:06:06.202Z,101998.60
2024-05-09T06:07:38.819Z,101999.80
2024-05-09T06:09:14.647Z,101999.60
2024-05-09T06:10:46.582Z,101999.20
2024-05-09T06:12:18.812Z,102005.80
2024-05-09T06:13:50.854Z,102001.60
2024-05-09T06:15:23.095Z,102002.60
2024-05-09T06:16:58.116Z,101999.20
2024-05-09T06:18:30.504Z,102003.60
2024-05-09T06:20:02.609Z,102004.40
2024-05-09T06:21:37.791Z,102005.00
2024-05-09T06:23:10.361Z,101998.00
2024-05-09T06:24:42.878Z,101997.40
2024-05-09T06:26:16.515Z,101997.20
2024-05-09T06:27:48.391Z,101999.00
2024-05-09T06:29:20.249Z,102002.00
2024-05-09T06:30:52.740Z,102000.00
2024-05-09T06:32:24.825Z,102003.20
2024-05-09T06:33:57.010Z,102000.20
2024-05-09T06:35:28.884Z,102002.20
2024-05-09T06:37:00.932Z,102003.40
2024-05-09T06:38:33.763Z,102001.00
2024-05-09T06:40:07.611Z,102002.00
2024-05-09T06:41:41.721Z,102000.40
2024-05-09T06:43:18.791Z,102000.00
2024-05-09T06:44:52.223Z,101998.40
2024-05-09T06:46:25.228Z,102002.40
2024-05-09T06:47:57.138Z,101997.60
2024-05-09T06:49:31.941Z,102000.60
2024-05-09T06:51:04.179Z,102000.80
2024-05-09T06:52:36.067Z,101995.60
2024-05-09T06:54:09.299Z,101997.60
2024-05-09T06:55:42.026Z,101996.00
2024-05-09T06:57:13.807Z,101994.80
2024-05-09T06:58:45.660Z,101993.80
2024-05-09T07:00:26.784Z,101992.40
2024-05-09T07:02:04.440Z,101998.00
2024-05-09T07:03:36.222Z,101999.20
2024-05-09T07:05:08.240Z,102002.00
2024-05-09T07:06:40.615Z,101999.80
2024-05-09T07:08:12.719Z,102002.40
2024-05-09T07:09:44.725Z,102009.00
2024-05-09T07:11:17.231Z,102005.40
2024-05-09T07:12:49.256Z,102003.00
2024-05-09T07:14:21.069Z,102008.60
2024-05-09T07:15:52.880Z,102009.60
2024-05-09T07:17:24.938Z,102008.00
2024-05-09T07:18:57.075Z,102009.00
2024-05-09T07:20:34.448Z,102008.00
2024-05-09T07:22:07.212Z,102007.40
2024-05-09T07:23:39.172Z,102008.20
2024-05-09T07:25:11.022Z,102005.60
2024-05-09T07:26:42.901Z,102010.00
2024-05-09T07:28:20.619Z,102005.00
2024-05-09T07:29:52.401Z,102007.60
2024-05-09T07:31:27.879Z,102005.40
2024-05-09T07:33:00.842Z,102005.60
2024-05-09T07:34:32.924Z,102006.00
2024-05-09T07:36:05.866Z,102006.00
2024-05-09T07:37:40.601Z,102000.80
2024-05-09T07:39:12.375Z,102002.80
2024-05-09T07:40:44.245Z,102004.80
2024-05-09T07:42:16.137Z,102002.80
2024-05-09T07:43:48.991Z,102001.00
2024-05-09T07:45:40.601Z,102001.40
2024-05-09T07:48:28.031Z,102006.20
2024-05-09T07:53:30.021Z,102003.40
2024-05-09T07:54:10.261Z,102000.60
2024-05-09T07:55:42.583Z,102004.60
2024-05-09T07:57:14.925Z,102001.20
2024-05-09T07:58:50.907Z,102005.40
2024-05-09T08:00:29.744Z,101996.60
2024-05-09T08:02:06.028Z,101996.20
2024-05-09T08:03:38.552Z,102000.60
2024-05-09T08:05:10.761Z,101994.60
2024-05-09T08:06:42.888Z,101996.60
2024-05-09T08:08:15.167Z,101996.60
2024-05-09T08:09:47.296Z,101994.00
2024-05-09T08:11:21.903Z,101997.00
2024-05-09T08:12:54.311Z,101998.20
2024-05-09T08:14:26.166Z,101998.40
2024-05-09T08:15:58.049Z,101995.20
2024-05-09T08:17:30.524Z,101991.20
2024-05-09T08:19:03.328Z,101988.20
2024-05-09T08:20:41.395Z,101989.40
2024-05-09T08:22:15.026Z,101992.80
2024-05-09T08:23:49.212Z,101992.20
2024-05-09T08:25:22.018Z,101991.40
2024-05-09T08:26:53.793Z,101992.40
2024-05-09T08:28:26.169Z,101988.20
2024-05-09T08:29:57.945Z,101989.80
2024-05-09T08:31:29.769Z,101995.40
2024-05-09T08:33:02.075Z,101996.00
2024-05-09T08:34:34.294Z,101995.40
2024-05-09T08:36:06.710Z,101996.60
2024-05-09T08:37:40.584Z,101997.00
2024-05-09T08:39:12.815Z,101996.80
2024-05-09T08:40:44.882Z,101993.80
2024-05-09T08:42:20.728Z,101996.80
2024-05-09T08:43:52.607Z,101995.80
2024-05-09T08:45:26.362Z,101995.20
2024-05-09T08:46:59.482Z,101996.00
2024-05-09T08:48:36.456Z,101994.60
2024-05-09T08:50:24.145Z,101990.00
2024-05-09T08:52:04.823Z,101992.80
2024-05-09T08:53:36.814Z,101986.80
2024-05-09T08:55:09.281Z,101987.20
2024-05-09T08:56:48.351Z,101986.60
2024-05-09T08:58:20.544Z,101987.40
2024-05-09T08:59:55.539Z,101988.80
2024-05-09T09:01:33.656Z,101986.20
2024-05-09T09:03:09.679Z,101983.60
2024-05-09T09:05:07.665Z,101982.00
2024-05-09T09:06:39.899Z,101980.60
2024-05-09T09:08:12.402Z,101985.80
2024-05-09T09:09:47.007Z,101984.00
2024-05-09T09:11:19.121Z,101986.00
2024-05-09T09:12:58.099Z,101988.40
2024-05-09T09:14:30.194Z,101984.80
2024-05-09T09:16:04.939Z,101982.00
2024-05-09T09:17:37.253Z,101980.60
2024-05-09T09:19:09.821Z,101979.80
2024-05-09T09:20:42.623Z,101981.00
2024-05-09T09:22:15.167Z,101980.40
2024-05-09T09:23:47.001Z,101981.60
2024-05-09T09:25:20.691Z,101983.80
2024-05-09T09:26:56.369Z,101983.80
2024-05-09T09:28:29.359Z,101981.40
2024-05-09T09:30:07.004Z,101979.80
2024-05-09T09:33:36.298Z,101976.80
2024-05-09T09:35:11.387Z,101976.60
2024-05-09T09:36:44.672Z,101975.80
2024-05-09T09:38:23.196Z,101971.20
2024-05-09T09:39:56.012Z,101969.20
2024-05-09T09:41:30.613Z,101971.80
2024-05-09T09:43:08.301Z,101971.80
2024-05-09T09:44:42.411Z,101976.40
2024-05-09T09:46:20.362Z,101972.60
2024-05-09T09:47:57.791Z,101969.40
2024-05-09T09:49:33.387Z,101969.00
2024-05-09T09:51:07.695Z,101973.20
2024-05-09T09:52:40.591Z,101976.60
2024-05-09T09:54:13.573Z,101973.60
2024-05-09T09:55:47.091Z,101971.40
2024-05-09T09:57:20.314Z,101970.20
2024-05-09T09:58:57.395Z,101968.00
2024-05-09T10:00:33.314Z,101967.40
2024-05-09T10:02:06.504Z,101968.40
2024-05-09T10:05:57.871Z,101956.60
2024-05-09T10:07:32.254Z,101958.60
2024-05-09T10:09:04.704Z,101957.80
2024-05-09T10:10:37.403Z,101957.40
2024-05-09T10:12:13.860Z,101956.40
2024-05-09T10:13:46.662Z,101953.00
2024-05-09T10:15:19.721Z,101948.00
2024-05-09T10:16:51.599Z,101947.00
2024-05-09T10:18:30.164Z,101950.80
2024-05-09T10:20:14.802Z,101946.00
2024-05-09T10:22:05.864Z,101956.40
2024-05-09T10:23:38.798Z,101952.80
2024-05-09T10:27:00.667Z,101941.60
2024-05-09T10:28:40.521Z,101940.20
2024-05-09T10:32:01.502Z,101931.60
2024-05-09T10:33:50.655Z,101927.20
2024-05-09T10:35:27.159Z,101928.80
2024-05-09T10:37:04.180Z,101928.40
2024-05-09T10:38:36.906Z,101925.00
2024-05-09T10:40:23.474Z,101925.40
2024-05-09T10:42:00.996Z,101923.80
2024-05-09T10:43:34.103Z,101925.80
2024-05-09T10:45:08.377Z,101925.20
2024-05-09T10:46:47.489Z,101924.40
2024-05-09T10:48:19.379Z,101924.00
2024-05-09T10:49:51.841Z,101917.00
2024-05-09T10:51:24.598Z,101919.60
2024-05-09T10:52:57.434Z,101917.80
2024-05-09T10:54:37.217Z,101916.20
2024-05-09T10:56:15.074Z,101918.80
2024-05-09T10:57:49.290Z,101914.80
2024-05-09T10:59:22.596Z,101917.60
2024-05-09T11:02:48.494Z,101914.40
2024-05-09T11:04:20.591Z,101913.20
2024-05-09T11:05:53.873Z,101912.80
2024-05-09T11:07:26.305Z,101916.20
2024-05-09T11:08:58.302Z,101920.80
2024-05-09T11:10:33.846Z,101916.20
2024-05-09T11:12:09.152Z,101911.40
2024-05-09T11:13:42.669Z,101912.60
2024-05-09T11:15:16.391Z,101911.20
2024-05-09T11:17:06.680Z,101907.40
2024-05-09T11:18:39.587Z,101908.00
2024-05-09T11:20:19.562Z,101914.20
2024-05-09T11:22:03.676Z,101911.40
2024-05-09T11:23:35.440Z,101910.20
2024-05-09T11:25:09.321Z,101910.80
2024-05-09T11:26:43.636Z,101905.60
2024-05-09T11:28:15.453Z,101903.20
2024-05-09T11:29:47.245Z,101896.00
2024-05-09T11:31:19.698Z,101901.80
2024-05-09T11:32:55.143Z,101897.60
2024-05-09T11:34:27.175Z,101895.40
2024-05-09T11:35:59.087Z,101891.80
2024-05-09T11:37:35.287Z,101890.00
2024-05-09T11:39:08.768Z,101898.20
2024-05-09T11:40:40.999Z,101890.80
2024-05-09T11:42:14.171Z,101882.60
2024-05-09T11:43:51.504Z,101877.00
2024-05-09T11:45:23.391Z,101874.60
2024-05-09T11:46:55.950Z,101875.20
2024-05-09T11:48:28.349Z,101871.00
2024-05-09T11:50:00.656Z,101868.40
2024-05-09T11:51:32.647Z,101869.80
2024-05-09T11:53:04.757Z,101868.60
2024-05-09T11:54:37.430Z,101870.00
2024-05-09T11:56:11.877Z,101863.20
2024-05-09T11:57:45.918Z,101860.00
2024-05-09T11:59:19.312Z,101859.00
2024-05-09T12:00:52.081Z,101858.20
2024-05-09T12:02:26.325Z,101856.00
2024-05-09T12:03:58.738Z,101854.40
2024-05-09T12:05:31.020Z,101853.00
2024-05-09T12:07:04.037Z,101849.80
2024-05-09T12:08:36.061Z,101852.40
2024-05-09T12:10:13.992Z,101849.00
2024-05-09T12:11:48.958Z,101849.40
2024-05-09T12:13:21.170Z,101851.00
2024-05-09T12:14:54.164Z,101844.80
2024-05-09T12:16:27.224Z,101847.00
2024-05-09T12:18:02.715Z,101847.20
2024-05-09T12:19:36.932Z,101849.20
2024-05-09T12:21:08.858Z,101852.40
2024-05-09T12:22:40.647Z,101850.60
2024-05-09T12:24:14.485Z,101843.80
2024-05-09T12:25:48.308Z,101839.80
2024-05-09T12:27:20.311Z,101837.00
2024-05-09T12:28:52.226Z,101835.20
2024-05-09T12:30:32.227Z,101832.00
2024-05-09T12:32:11.028Z,101833.80
2024-05-09T12:33:43.015Z,101829.00
2024-05-09T12:35:15.574Z,101830.60
2024-05-09T12:36:47.977Z,101831.40
2024-05-09T12:38:19.772Z,101829.00
2024-05-09T12:39:51.585Z,101828.20
2024-05-09T12:41:25.552Z,101826.00
2024-05-09T12:42:57.436Z,101828.60
2024-05-09T12:44:32.406Z,101823.40
2024-05-09T12:46:04.752Z,101825.20
2024-05-09T12:47:36.779Z,101827.40
2024-05-09T12:49:08.890Z,101827.80
2024-05-09T12:50:41.719Z,101821.40
2024-05-09T12:52:14.095Z,101818.00
2024-05-09T12:53:46.171Z,101824.20
2024-05-09T12:55:18.115Z,101818.60
2024-05-09T12:56:50.520Z,101817.40
2024-05-09T12:58:23.123Z,101827.80
2024-05-09T12:59:55.730Z,101824.60
2024-05-09T13:01:27.680Z,101824.00
2024-05-09T13:03:01.166Z,101824.60
2024-05-09T13:04:36.039Z,101823.60
2024-05-09T13:06:08.638Z,101817.80
2024-05-09T13:07:41.421Z,101811.00
2024-05-09T13:09:13.263Z,101811.80
2024-05-09T13:10:45.370Z,101810.20
2024-05-09T13:12:17.385Z,101807.40
2024-05-09T13:13:50.349Z,101807.40
2024-05-09T13:15:22.219Z,101807.60
2024-05-09T13:16:54.168Z,101807.80
2024-05-09T13:18:26.068Z,101813.80
2024-05-09T13:19:58.168Z,101812.40
2024-05-09T13:21:30.015Z,101813.80
2024-05-09T13:23:05.389Z,101814.20
2024-05-09T13:24:37.802Z,101811.60
2024-05-09T13:26:12.243Z,101805.80
2024-05-09T13:27:44.224Z,101806.40
2024-05-09T13:29:16.321Z,101803.20
2024-05-09T13:30:48.326Z,101796.80
2024-05-09T13:32:21.301Z,101806.80
2024-05-09T13:33:53.172Z,101804.40
2024-05-09T13:35:25.239Z,101800.80
2024-05-09T13:36:57.163Z,101797.80
2024-05-09T13:38:29.237Z,101802.40
2024-05-09T13:40:02.177Z,101799.20
2024-05-09T13:41:34.310Z,101796.40
2024-05-09T13:43:07.029Z,101790.80
2024-05-09T13:44:39.452Z,101791.20
2024-05-09T13:46:13.807Z,101793.00
2024-05-09T13:47:48.086Z,101787.40
2024-05-09T13:49:20.202Z,101793.80
2024-05-09T13:50:52.535Z,101783.20
2024-05-09T13:52:24.461Z,101783.60
2024-05-09T13:53:59.201Z,101785.20
2024-05-09T13:55:31.185Z,101780.00
2024-05-09T13:57:13.336Z,101779.20
2024-05-09T13:58:46.472Z,101780.80
2024-05-09T14:00:31.611Z,101776.60
2024-05-09T14:02:10.258Z,101777.60
2024-05-09T14:03:42.828Z,101772.80
2024-05-09T14:05:15.206Z,101775.00
2024-05-09T14:06:47.857Z,101772.80
2024-05-09T14:08:22.702Z,101781.40
2024-05-09T14:09:55.023Z,101780.20
2024-05-09T14:11:27.739Z,101776.80
2024-05-09T14:13:01.174Z,101778.00
2024-05-09T14:14:34.780Z,101762.40
2024-05-09T14:16:07.638Z,101764.40
2024-05-09T14:17:40.138Z,101774.20
2024-05-09T14:19:12.550Z,101770.00
2024-05-09T14:20:44.548Z,101770.60
2024-05-09T14:22:19.085Z,101767.20
2024-05-09T14:23:51.327Z,101765.60
2024-05-09T14:25:26.115Z,101765.20
2024-05-09T14:26:59.439Z,101754.60
2024-05-09T14:28:32.583Z,101756.60
2024-05-09T14:30:14.919Z,101752.00
2024-05-09T14:31:54.478Z,101757.80
2024-05-09T14:33:27.310Z,101755.40
2024-05-09T14:34:59.429Z,101755.00
2024-05-09T14:36:34.217Z,101753.80
2024-05-09T14:38:08.532Z,101751.40
2024-05-09T14:39:41.000Z,101749.80
2024-05-09T14:41:13.231Z,101750.80
2024-05-09T14:42:45.015Z,101749.60
2024-05-09T14:44:17.012Z,101751.20
2024-05-09T14:45:49.992Z,101749.60
2024-05-09T14:47:22.113Z,101746.60
2024-05-09T14:48:54.209Z,101747.20
2024-05-09T14:50:34.705Z,101744.60
2024-05-09T14:52:10.262Z,101742.20
2024-05-09T14:53:43.805Z,101744.80
2024-05-09T14:55:15.791Z,101740.80
2024-05-09T14:56:47.853Z,101735.60
2024-05-09T14:58:19.902Z,101733.80
2024-05-09T14:59:52.480Z,101732.80
2024-05-09T15:01:24.966Z,101725.20
2024-05-09T15:02:57.261Z,101725.00
2024-05-09T15:04:29.784Z,101726.60
2024-05-09T15:06:01.777Z,101725.00
2024-05-09T15:07:34.394Z,101722.00
2024-05-09T15:09:07.555Z,101722.20
2024-05-09T15:10:39.662Z,101721.60
2024-05-09T15:12:12.596Z,101723.20
2024-05-09T15:13:44.471Z,101718.60
2024-05-09T15:15:17.775Z,101715.00
2024-05-09T15:16:49.934Z,101712.60
2024-05-09T15:18:22.071Z,101705.80
2024-05-09T15:19:54.220Z,101708.60
2024-05-09T15:21:26.474Z,101709.80
2024-05-09T15:22:58.390Z,101708.80
2024-05-09T15:24:30.325Z,101709.20
2024-05-09T15:26:07.165Z,101711.80
2024-05-09T15:27:39.101Z,101707.20
2024-05-09T15:29:11.032Z,101705.80
2024-05-09T15:30:45.968Z,101708.40
2024-05-09T15:32:18.867Z,101706.40
2024-05-09T15:33:50.914Z,101709.80
2024-05-09T15:35:22.652Z,101715.60
2024-05-09T15:36:54.471Z,101716.00
2024-05-09T15:38:27.957Z,101717.00
2024-05-09T15:40:01.256Z,101717.40
2024-05-09T15:41:33.399Z,101711.80
2024-05-09T15:43:06.215Z,101709.00
2024-05-09T15:44:38.232Z,101710.00
2024-05-09T15:46:10.200Z,101707.40
2024-05-09T15:47:43.504Z,101709.20
2024-05-09T15:49:15.722Z,101713.60
2024-05-09T15:50:47.836Z,101710.00
2024-05-09T15:52:19.887Z,101707.80
2024-05-09T15:53:52.517Z,101709.20
2024-05-09T15:55:24.646Z,101708.00
2024-05-09T15:56:56.566Z,101708.60
2024-05-09T15:58:30.280Z,101706.00
2024-05-09T16:00:02.094Z,101705.20
2024-05-09T16:01:44.642Z,101702.00
2024-05-09T16:03:16.769Z,101693.40
2024-05-09T16:04:49.283Z,101695.60
2024-05-09T16:06:22.666Z,101699.40
2024-05-09T16:07:54.638Z,101701.00
2024-05-09T16:09:30.163Z,101699.60
2024-05-09T16:11:03.020Z,101694.60
2024-05-09T16:12:36.936Z,101694.00
2024-05-09T16:14:09.406Z,101690.40
2024-05-09T16:15:42.893Z,101690.40
2024-05-09T16:17:15.077Z,101692.60
2024-05-09T16:18:47.104Z,101689.40
2024-05-09T16:20:29.886Z,101691.20
2024-05-09T16:22:10.459Z,101689.00
2024-05-09T16:23:42.465Z,101695.20
2024-05-09T16:25:14.317Z,101692.00
2024-05-09T16:26:46.459Z,101691.80
2024-05-09T16:28:19.864Z,101691.00
2024-05-09T16:29:53.474Z,101693.60
2024-05-09T16:31:25.441Z,101691.00
2024-05-09T16:32:57.461Z,101689.20
2024-05-09T16:34:30.314Z,101689.20
2024-05-09T16:36:02.375Z,101688.00
2024-05-09T16:37:34.298Z,101690.40
2024-05-09T16:39:06.305Z,101687.00
2024-05-09T16:40:40.816Z,101691.40
2024-05-09T16:42:13.509Z,101686.00
2024-05-09T16:43:45.363Z,101684.00
2024-05-09T16:45:17.280Z,101685.60
2024-05-09T16:46:49.086Z,101686.00
2024-05-09T16:48:21.309Z,101685.80
2024-05-09T16:49:53.139Z,101683.40
2024-05-09T16:51:26.093Z,101682.60
2024-05-09T16:52:57.960Z,101677.40
2024-05-09T16:54:29.868Z,101679.20
2024-05-09T16:56:05.439Z,101678.20
2024-05-09T16:57:37.909Z,101679.20
2024-05-09T16:59:10.290Z,101680.40
2024-05-09T17:00:43.940Z,101677.20
2024-05-09T17:02:19.303Z,101676.60
2024-05-09T17:03:51.908Z,101672.00
2024-05-09T17:05:23.824Z,101675.20
2024-05-09T17:06:56.406Z,101678.40
2024-05-09T17:08:28.920Z,101676.00
2024-05-09T17:10:00.900Z,101675.40
2024-05-09T17:11:34.256Z,101674.20
2024-05-09T17:13:07.563Z,101676.20
2024-05-09T17:14:40.203Z,101677.40
2024-05-09T17:16:13.504Z,101677.20
2024-05-09T17:17:45.591Z,101675.20
2024-05-09T17:19:19.358Z,101682.00
2024-05-09T17:20:53.457Z,101683.00
2024-05-09T17:22:25.662Z,101679.80
2024-05-09T17:23:57.611Z,101680.60
2024-05-09T17:25:29.871Z,101674.40
2024-05-09T17:27:02.432Z,101674.60
2024-05-09T17:28:34.501Z,101674.20
2024-05-09T17:30:08.112Z,101671.00
2024-05-09T17:31:43.717Z,101671.00
2024-05-09T17:33:15.934Z,101668.80
2024-05-09T17:34:50.228Z,101668.00
2024-05-09T17:36:22.307Z,101665.40
2024-05-09T17:37:54.353Z,101665.40
2024-05-09T17:39:27.375Z,101665.80
2024-05-09T17:40:59.302Z,101664.80
2024-05-09T17:42:33.438Z,101669.00
2024-05-09T17:44:06.485Z,101669.00
2024-05-09T17:45:40.505Z,101670.60
2024-05-09T17:47:14.261Z,101675.80
2024-05-09T17:48:46.184Z,101677.20
2024-05-09T17:50:24.600Z,101674.20
2024-05-09T17:52:03.532Z,101671.40
2024-05-09T17:53:35.446Z,101673.60
2024-05-09T17:55:07.769Z,101667.40
2024-05-09T17:56:39.707Z,101672.20
2024-05-09T17:58:12.722Z,101670.00
2024-05-09T17:59:44.717Z,101665.80
2024-05-09T18:01:16.638Z,101669.40
2024-05-09T18:02:48.662Z,101667.20